sensor_id;sensor_type;location;lat;lon;timestamp;temperature;humidity
19214;DHT22;9741;51.020;5.304;2022-08-30T00:00:20;17.90;47.80
19214;DHT22;9741;51.020;5.304;2022-08-30T00:03:09;17.90;47.80
19214;DHT22;9741;51.020;5.304;2022-08-30T00:05:42;17.90;47.80
19214;DHT22;9741;51.020;5.304;2022-08-30T00:08:11;17.90;47.90
19214;DHT22;9741;51.020;5.304;2022-08-30T00:10:43;17.90;47.90
19214;DHT22;9741;51.020;5.304;2022-08-30T00:13:14;18.00;48.10
19214;DHT22;9741;51.020;5.304;2022-08-30T00:15:50;18.00;48.10
19214;DHT22;9741;51.020;5.304;2022-08-30T00:18:27;18.10;48.20
19214;DHT22;9741;51.020;5.304;2022-08-30T00:21:03;18.10;48.20
19214;DHT22;9741;51.020;5.304;2022-08-30T00:23:41;18.10;48.20
19214;DHT22;9741;51.020;5.304;2022-08-30T00:26:10;18.20;48.30
19214;DHT22;9741;51.020;5.304;2022-08-30T00:28:45;18.20;48.30
19214;DHT22;9741;51.020;5.304;2022-08-30T00:31:16;18.20;48.30
19214;DHT22;9741;51.020;5.304;2022-08-30T00:33:48;18.20;48.40
19214;DHT22;9741;51.020;5.304;2022-08-30T00:36:19;18.20;48.30
19214;DHT22;9741;51.020;5.304;2022-08-30T00:38:56;18.30;48.50
19214;DHT22;9741;51.020;5.304;2022-08-30T00:41:34;18.30;48.40
19214;DHT22;9741;51.020;5.304;2022-08-30T00:44:13;18.30;48.40
19214;DHT22;9741;51.020;5.304;2022-08-30T00:46:44;18.40;48.60
19214;DHT22;9741;51.020;5.304;2022-08-30T00:49:13;18.30;48.50
19214;DHT22;9741;51.020;5.304;2022-08-30T00:51:44;18.30;48.60
19214;DHT22;9741;51.020;5.304;2022-08-30T00:54:19;18.40;48.70
19214;DHT22;9741;51.020;5.304;2022-08-30T00:57:02;18.40;48.80
19214;DHT22;9741;51.020;5.304;2022-08-30T00:59:45;18.40;48.80
19214;DHT22;9741;51.020;5.304;2022-08-30T01:02:20;18.50;48.90
19214;DHT22;9741;51.020;5.304;2022-08-30T01:04:52;18.50;48.90
19214;DHT22;9741;51.020;5.304;2022-08-30T01:07:20;18.60;49.10
19214;DHT22;9741;51.020;5.304;2022-08-30T01:09:52;18.60;49.00
19214;DHT22;9741;51.020;5.304;2022-08-30T01:12:19;18.60;49.10
19214;DHT22;9741;51.020;5.304;2022-08-30T01:14:55;18.60;49.10
19214;DHT22;9741;51.020;5.304;2022-08-30T01:17:26;18.60;49.10
19214;DHT22;9741;51.020;5.304;2022-08-30T01:19:58;18.60;49.10
19214;DHT22;9741;51.020;5.304;2022-08-30T01:22:36;18.60;49.20
19214;DHT22;9741;51.020;5.304;2022-08-30T01:25:22;18.50;49.20
19214;DHT22;9741;51.020;5.304;2022-08-30T01:27:57;18.50;49.30
19214;DHT22;9741;51.020;5.304;2022-08-30T01:30:29;18.50;49.30
19214;DHT22;9741;51.020;5.304;2022-08-30T01:33:01;18.40;49.30
19214;DHT22;9741;51.020;5.304;2022-08-30T01:35:36;18.30;49.30
19214;DHT22;9741;51.020;5.304;2022-08-30T01:38:05;18.30;49.50
19214;DHT22;9741;51.020;5.304;2022-08-30T01:40:56;18.20;49.60
19214;DHT22;9741;51.020;5.304;2022-08-30T01:43:26;18.20;49.80
19214;DHT22;9741;51.020;5.304;2022-08-30T01:46:04;18.10;49.80
19214;DHT22;9741;51.020;5.304;2022-08-30T01:48:32;18.10;50.00
19214;DHT22;9741;51.020;5.304;2022-08-30T01:51:16;18.10;50.20
19214;DHT22;9741;51.020;5.304;2022-08-30T01:53:51;18.10;50.30
19214;DHT22;9741;51.020;5.304;2022-08-30T01:56:25;18.00;50.30
19214;DHT22;9741;51.020;5.304;2022-08-30T01:58:58;18.00;50.40
19214;DHT22;9741;51.020;5.304;2022-08-30T02:01:35;18.00;50.40
19214;DHT22;9741;51.020;5.304;2022-08-30T02:04:07;18.00;50.50
19214;DHT22;9741;51.020;5.304;2022-08-30T02:06:43;18.00;50.60
19214;DHT22;9741;51.020;5.304;2022-08-30T02:09:17;17.90;51.10
19214;DHT22;9741;51.020;5.304;2022-08-30T02:11:50;17.90;50.70
19214;DHT22;9741;51.020;5.304;2022-08-30T02:14:19;17.90;50.80
19214;DHT22;9741;51.020;5.304;2022-08-30T02:16:47;17.90;50.90
19214;DHT22;9741;51.020;5.304;2022-08-30T02:19:17;17.90;51.00
19214;DHT22;9741;51.020;5.304;2022-08-30T02:21:47;17.90;51.10
19214;DHT22;9741;51.020;5.304;2022-08-30T02:24:18;17.90;51.10
19214;DHT22;9741;51.020;5.304;2022-08-30T02:26:50;17.90;51.20
19214;DHT22;9741;51.020;5.304;2022-08-30T02:29:23;17.90;51.30
19214;DHT22;9741;51.020;5.304;2022-08-30T02:32:00;17.90;51.30
19214;DHT22;9741;51.020;5.304;2022-08-30T02:34:31;18.00;51.40
19214;DHT22;9741;51.020;5.304;2022-08-30T02:37:02;18.00;51.50
19214;DHT22;9741;51.020;5.304;2022-08-30T02:39:31;18.00;51.60
19214;DHT22;9741;51.020;5.304;2022-08-30T02:42:05;18.00;51.60
19214;DHT22;9741;51.020;5.304;2022-08-30T02:44:32;18.10;51.80
19214;DHT22;9741;51.020;5.304;2022-08-30T02:47:03;18.10;51.80
19214;DHT22;9741;51.020;5.304;2022-08-30T02:49:41;18.10;51.80
19214;DHT22;9741;51.020;5.304;2022-08-30T02:52:19;18.10;51.90
19214;DHT22;9741;51.020;5.304;2022-08-30T02:54:47;18.20;52.00
19214;DHT22;9741;51.020;5.304;2022-08-30T02:57:18;18.20;52.10
19214;DHT22;9741;51.020;5.304;2022-08-30T02:59:50;18.20;52.20
19214;DHT22;9741;51.020;5.304;2022-08-30T03:02:20;18.20;52.20
19214;DHT22;9741;51.020;5.304;2022-08-30T03:04:48;18.20;52.30
19214;DHT22;9741;51.020;5.304;2022-08-30T03:07:17;18.20;52.30
19214;DHT22;9741;51.020;5.304;2022-08-30T03:09:53;18.20;52.40
19214;DHT22;9741;51.020;5.304;2022-08-30T03:12:25;18.10;52.40
19214;DHT22;9741;51.020;5.304;2022-08-30T03:14:54;18.10;52.50
19214;DHT22;9741;51.020;5.304;2022-08-30T03:17:30;18.10;52.60
19214;DHT22;9741;51.020;5.304;2022-08-30T03:20:00;18.10;52.70
19214;DHT22;9741;51.020;5.304;2022-08-30T03:22:28;18.10;52.80
19214;DHT22;9741;51.020;5.304;2022-08-30T03:25:04;18.10;52.90
19214;DHT22;9741;51.020;5.304;2022-08-30T03:27:43;18.10;52.90
19214;DHT22;9741;51.020;5.304;2022-08-30T03:30:17;18.20;53.00
19214;DHT22;9741;51.020;5.304;2022-08-30T03:32:54;18.10;52.90
19214;DHT22;9741;51.020;5.304;2022-08-30T03:35:30;18.10;53.10
19214;DHT22;9741;51.020;5.304;2022-08-30T03:37:58;18.10;53.20
19214;DHT22;9741;51.020;5.304;2022-08-30T03:40:30;18.10;53.30
19214;DHT22;9741;51.020;5.304;2022-08-30T03:43:10;18.10;53.40
19214;DHT22;9741;51.020;5.304;2022-08-30T03:45:40;18.10;53.50
19214;DHT22;9741;51.020;5.304;2022-08-30T03:48:10;18.10;53.50
19214;DHT22;9741;51.020;5.304;2022-08-30T03:50:45;18.10;53.50
19214;DHT22;9741;51.020;5.304;2022-08-30T03:53:16;18.20;53.60
19214;DHT22;9741;51.020;5.304;2022-08-30T03:55:47;18.20;53.70
19214;DHT22;9741;51.020;5.304;2022-08-30T03:58:26;18.30;53.70
19214;DHT22;9741;51.020;5.304;2022-08-30T04:00:55;18.30;53.70
19214;DHT22;9741;51.020;5.304;2022-08-30T04:03:23;18.30;54.30
19214;DHT22;9741;51.020;5.304;2022-08-30T04:05:51;18.30;53.70
19214;DHT22;9741;51.020;5.304;2022-08-30T04:08:21;18.40;53.90
19214;DHT22;9741;51.020;5.304;2022-08-30T04:10:52;18.40;53.90
19214;DHT22;9741;51.020;5.304;2022-08-30T04:13:31;18.40;53.90
19214;DHT22;9741;51.020;5.304;2022-08-30T04:16:01;18.40;53.90
19214;DHT22;9741;51.020;5.304;2022-08-30T04:18:28;18.40;53.90
19214;DHT22;9741;51.020;5.304;2022-08-30T04:20:56;18.40;53.90
19214;DHT22;9741;51.020;5.304;2022-08-30T04:23:23;18.40;53.90
19214;DHT22;9741;51.020;5.304;2022-08-30T04:25:53;18.40;53.90
19214;DHT22;9741;51.020;5.304;2022-08-30T04:28:22;18.50;54.00
19214;DHT22;9741;51.020;5.304;2022-08-30T04:30:51;18.50;54.00
19214;DHT22;9741;51.020;5.304;2022-08-30T04:33:22;18.40;54.00
19214;DHT22;9741;51.020;5.304;2022-08-30T04:36:01;18.40;54.00
19214;DHT22;9741;51.020;5.304;2022-08-30T04:38:31;18.50;54.20
19214;DHT22;9741;51.020;5.304;2022-08-30T04:41:08;18.40;54.10
19214;DHT22;9741;51.020;5.304;2022-08-30T04:43:39;18.40;54.10
19214;DHT22;9741;51.020;5.304;2022-08-30T04:46:13;18.40;54.10
19214;DHT22;9741;51.020;5.304;2022-08-30T04:48:41;18.40;54.20
19214;DHT22;9741;51.020;5.304;2022-08-30T04:51:12;18.40;54.20
19214;DHT22;9741;51.020;5.304;2022-08-30T04:53:42;18.40;54.30
19214;DHT22;9741;51.020;5.304;2022-08-30T04:56:13;18.40;54.30
19214;DHT22;9741;51.020;5.304;2022-08-30T04:58:42;18.40;54.30
19214;DHT22;9741;51.020;5.304;2022-08-30T05:01:13;18.40;54.40
19214;DHT22;9741;51.020;5.304;2022-08-30T05:03:44;18.30;54.30
19214;DHT22;9741;51.020;5.304;2022-08-30T05:06:14;18.30;54.30
19214;DHT22;9741;51.020;5.304;2022-08-30T05:08:45;18.30;54.30
19214;DHT22;9741;51.020;5.304;2022-08-30T05:11:15;18.40;54.40
19214;DHT22;9741;51.020;5.304;2022-08-30T05:13:46;18.40;54.40
19214;DHT22;9741;51.020;5.304;2022-08-30T05:16:20;18.50;54.50
19214;DHT22;9741;51.020;5.304;2022-08-30T05:18:49;18.50;54.50
19214;DHT22;9741;51.020;5.304;2022-08-30T05:21:21;18.50;54.40
19214;DHT22;9741;51.020;5.304;2022-08-30T05:23:52;18.50;54.50
19214;DHT22;9741;51.020;5.304;2022-08-30T05:26:23;18.50;54.40
19214;DHT22;9741;51.020;5.304;2022-08-30T05:28:52;18.60;54.50
19214;DHT22;9741;51.020;5.304;2022-08-30T05:31:25;18.60;54.50
19214;DHT22;9741;51.020;5.304;2022-08-30T05:33:55;18.60;54.50
19214;DHT22;9741;51.020;5.304;2022-08-30T05:36:25;18.60;55.10
19214;DHT22;9741;51.020;5.304;2022-08-30T05:38:53;18.70;54.50
19214;DHT22;9741;51.020;5.304;2022-08-30T05:41:24;18.70;54.40
19214;DHT22;9741;51.020;5.304;2022-08-30T05:43:53;18.80;54.40
19214;DHT22;9741;51.020;5.304;2022-08-30T05:46:29;18.80;54.90
19214;DHT22;9741;51.020;5.304;2022-08-30T05:49:02;18.90;54.40
19214;DHT22;9741;51.020;5.304;2022-08-30T05:51:35;18.90;54.30
19214;DHT22;9741;51.020;5.304;2022-08-30T05:54:06;18.90;54.30
19214;DHT22;9741;51.020;5.304;2022-08-30T05:56:40;19.00;54.30
19214;DHT22;9741;51.020;5.304;2022-08-30T05:59:09;19.00;54.30
19214;DHT22;9741;51.020;5.304;2022-08-30T06:01:41;19.00;54.20
19214;DHT22;9741;51.020;5.304;2022-08-30T06:04:12;19.10;54.30
19214;DHT22;9741;51.020;5.304;2022-08-30T06:06:43;19.00;54.10
19214;DHT22;9741;51.020;5.304;2022-08-30T06:09:12;19.20;54.30
19214;DHT22;9741;51.020;5.304;2022-08-30T06:11:45;19.20;54.20
19214;DHT22;9741;51.020;5.304;2022-08-30T06:14:13;19.20;54.10
19214;DHT22;9741;51.020;5.304;2022-08-30T06:16:43;19.20;54.00
19214;DHT22;9741;51.020;5.304;2022-08-30T06:19:15;19.30;54.00
19214;DHT22;9741;51.020;5.304;2022-08-30T06:21:47;19.40;54.10
19214;DHT22;9741;51.020;5.304;2022-08-30T06:24:14;19.40;54.10
19214;DHT22;9741;51.020;5.304;2022-08-30T06:26:46;19.50;54.70
19214;DHT22;9741;51.020;5.304;2022-08-30T06:29:21;19.50;54.00
19214;DHT22;9741;51.020;5.304;2022-08-30T06:31:57;19.60;53.90
19214;DHT22;9741;51.020;5.304;2022-08-30T06:34:29;19.70;53.90
19214;DHT22;9741;51.020;5.304;2022-08-30T06:36:57;19.70;53.90
19214;DHT22;9741;51.020;5.304;2022-08-30T06:39:26;19.80;53.90
19214;DHT22;9741;51.020;5.304;2022-08-30T06:42:02;19.90;53.80
19214;DHT22;9741;51.020;5.304;2022-08-30T06:44:38;20.00;53.70
19214;DHT22;9741;51.020;5.304;2022-08-30T06:47:23;20.00;53.60
19214;DHT22;9741;51.020;5.304;2022-08-30T06:49:53;20.10;53.50
19214;DHT22;9741;51.020;5.304;2022-08-30T06:52:23;20.20;53.50
19214;DHT22;9741;51.020;5.304;2022-08-30T06:54:53;20.30;53.50
19214;DHT22;9741;51.020;5.304;2022-08-30T06:57:22;20.30;53.30
19214;DHT22;9741;51.020;5.304;2022-08-30T06:59:59;20.40;53.20
19214;DHT22;9741;51.020;5.304;2022-08-30T07:02:42;20.50;53.20
19214;DHT22;9741;51.020;5.304;2022-08-30T07:05:11;20.60;53.70
19214;DHT22;9741;51.020;5.304;2022-08-30T07:07:43;20.70;53.00
19214;DHT22;9741;51.020;5.304;2022-08-30T07:10:14;20.80;53.00
19214;DHT22;9741;51.020;5.304;2022-08-30T07:12:45;20.90;52.90
19214;DHT22;9741;51.020;5.304;2022-08-30T07:15:22;21.10;52.80
19214;DHT22;9741;51.020;5.304;2022-08-30T07:17:55;21.20;52.60
19214;DHT22;9741;51.020;5.304;2022-08-30T07:20:41;21.40;52.50
19214;DHT22;9741;51.020;5.304;2022-08-30T07:23:12;21.70;52.40
19214;DHT22;9741;51.020;5.304;2022-08-30T07:25:41;22.00;52.20
19214;DHT22;9741;51.020;5.304;2022-08-30T07:28:12;22.30;52.00
19214;DHT22;9741;51.020;5.304;2022-08-30T07:30:41;22.60;51.70
19214;DHT22;9741;51.020;5.304;2022-08-30T07:33:13;22.80;51.40
19214;DHT22;9741;51.020;5.304;2022-08-30T07:35:41;23.00;51.10
19214;DHT22;9741;51.020;5.304;2022-08-30T07:38:12;23.20;50.90
19214;DHT22;9741;51.020;5.304;2022-08-30T07:40:40;23.40;50.80
19214;DHT22;9741;51.020;5.304;2022-08-30T07:43:23;23.50;50.50
19214;DHT22;9741;51.020;5.304;2022-08-30T07:45:51;23.70;50.30
19214;DHT22;9741;51.020;5.304;2022-08-30T07:48:20;23.90;50.10
19214;DHT22;9741;51.020;5.304;2022-08-30T07:50:48;23.90;49.70
19214;DHT22;9741;51.020;5.304;2022-08-30T07:53:18;24.00;49.60
19214;DHT22;9741;51.020;5.304;2022-08-30T07:56:00;24.00;49.40
19214;DHT22;9741;51.020;5.304;2022-08-30T07:58:28;24.00;49.20
19214;DHT22;9741;51.020;5.304;2022-08-30T08:00:58;24.10;49.10
19214;DHT22;9741;51.020;5.304;2022-08-30T08:03:31;24.20;48.90
19214;DHT22;9741;51.020;5.304;2022-08-30T08:06:01;24.30;48.60
19214;DHT22;9741;51.020;5.304;2022-08-30T08:08:32;24.40;48.60
19214;DHT22;9741;51.020;5.304;2022-08-30T08:11:05;24.50;48.50
19214;DHT22;9741;51.020;5.304;2022-08-30T08:13:34;24.60;48.40
19214;DHT22;9741;51.020;5.304;2022-08-30T08:16:05;24.90;48.40
19214;DHT22;9741;51.020;5.304;2022-08-30T08:18:36;25.20;48.20
19214;DHT22;9741;51.020;5.304;2022-08-30T08:21:06;25.60;47.90
19214;DHT22;9741;51.020;5.304;2022-08-30T08:23:38;26.00;47.30
19214;DHT22;9741;51.020;5.304;2022-08-30T08:26:07;26.40;46.70
19214;DHT22;9741;51.020;5.304;2022-08-30T08:28:37;26.70;46.20
19214;DHT22;9741;51.020;5.304;2022-08-30T08:31:15;26.90;45.80
19214;DHT22;9741;51.020;5.304;2022-08-30T08:33:51;27.10;45.40
19214;DHT22;9741;51.020;5.304;2022-08-30T08:36:21;27.20;45.00
19214;DHT22;9741;51.020;5.304;2022-08-30T08:38:48;27.30;44.80
19214;DHT22;9741;51.020;5.304;2022-08-30T08:41:30;27.40;44.60
19214;DHT22;9741;51.020;5.304;2022-08-30T08:44:12;27.40;44.20
19214;DHT22;9741;51.020;5.304;2022-08-30T08:46:49;27.40;44.10
19214;DHT22;9741;51.020;5.304;2022-08-30T08:49:25;27.30;44.00
19214;DHT22;9741;51.020;5.304;2022-08-30T08:51:55;27.20;43.90
19214;DHT22;9741;51.020;5.304;2022-08-30T08:54:43;27.20;44.10
19214;DHT22;9741;51.020;5.304;2022-08-30T08:57:17;27.20;44.10
19214;DHT22;9741;51.020;5.304;2022-08-30T08:59:45;27.20;43.90
19214;DHT22;9741;51.020;5.304;2022-08-30T09:02:23;27.30;43.80
19214;DHT22;9741;51.020;5.304;2022-08-30T09:05:02;27.40;43.40
19214;DHT22;9741;51.020;5.304;2022-08-30T09:07:40;27.40;43.40
19214;DHT22;9741;51.020;5.304;2022-08-30T09:10:13;27.40;43.10
19214;DHT22;9741;51.020;5.304;2022-08-30T09:12:44;27.40;43.00
19214;DHT22;9741;51.020;5.304;2022-08-30T09:15:19;27.60;42.80
19214;DHT22;9741;51.020;5.304;2022-08-30T09:17:53;27.80;42.60
19214;DHT22;9741;51.020;5.304;2022-08-30T09:20:43;28.00;42.30
19214;DHT22;9741;51.020;5.304;2022-08-30T09:23:24;28.20;41.80
19214;DHT22;9741;51.020;5.304;2022-08-30T09:26:01;28.20;41.50
19214;DHT22;9741;51.020;5.304;2022-08-30T09:28:43;28.20;41.40
19214;DHT22;9741;51.020;5.304;2022-08-30T09:31:17;28.30;41.30
19214;DHT22;9741;51.020;5.304;2022-08-30T09:33:54;28.40;41.00
19214;DHT22;9741;51.020;5.304;2022-08-30T09:36:29;28.40;40.80
19214;DHT22;9741;51.020;5.304;2022-08-30T09:39:02;28.50;40.70
19214;DHT22;9741;51.020;5.304;2022-08-30T09:41:40;28.60;40.50
19214;DHT22;9741;51.020;5.304;2022-08-30T09:44:13;28.70;40.40
19214;DHT22;9741;51.020;5.304;2022-08-30T09:46:47;28.80;40.30
19214;DHT22;9741;51.020;5.304;2022-08-30T09:49:37;28.80;40.20
19214;DHT22;9741;51.020;5.304;2022-08-30T09:52:33;28.80;40.10
19214;DHT22;9741;51.020;5.304;2022-08-30T09:55:14;28.80;40.10
19214;DHT22;9741;51.020;5.304;2022-08-30T09:57:52;28.80;39.90
19214;DHT22;9741;51.020;5.304;2022-08-30T10:00:25;28.90;39.90
19214;DHT22;9741;51.020;5.304;2022-08-30T10:03:13;29.00;39.80
19214;DHT22;9741;51.020;5.304;2022-08-30T10:05:56;29.10;39.70
19214;DHT22;9741;51.020;5.304;2022-08-30T10:08:44;29.20;39.50
19214;DHT22;9741;51.020;5.304;2022-08-30T10:11:26;29.20;39.30
19214;DHT22;9741;51.020;5.304;2022-08-30T10:16:54;29.00;39.10
19214;DHT22;9741;51.020;5.304;2022-08-30T10:19:34;28.80;39.00
19214;DHT22;9741;51.020;5.304;2022-08-30T10:22:12;28.50;39.10
19214;DHT22;9741;51.020;5.304;2022-08-30T10:24:52;28.30;39.20
19214;DHT22;9741;51.020;5.304;2022-08-30T10:27:28;28.30;39.20
19214;DHT22;9741;51.020;5.304;2022-08-30T10:30:02;28.20;39.00
19214;DHT22;9741;51.020;5.304;2022-08-30T10:32:35;28.10;39.00
19214;DHT22;9741;51.020;5.304;2022-08-30T10:35:12;28.00;39.20
19214;DHT22;9741;51.020;5.304;2022-08-30T10:37:51;28.00;39.30
19214;DHT22;9741;51.020;5.304;2022-08-30T10:40:34;28.00;39.20
19214;DHT22;9741;51.020;5.304;2022-08-30T10:43:23;28.00;39.20
19214;DHT22;9741;51.020;5.304;2022-08-30T10:45:55;28.00;39.20
19214;DHT22;9741;51.020;5.304;2022-08-30T10:48:31;27.90;39.00
19214;DHT22;9741;51.020;5.304;2022-08-30T10:51:09;27.90;39.20
19214;DHT22;9741;51.020;5.304;2022-08-30T10:53:42;27.80;39.40
19214;DHT22;9741;51.020;5.304;2022-08-30T10:56:16;27.80;39.40
19214;DHT22;9741;51.020;5.304;2022-08-30T10:58:50;27.80;39.50
19214;DHT22;9741;51.020;5.304;2022-08-30T11:01:31;27.70;39.40
19214;DHT22;9741;51.020;5.304;2022-08-30T11:07:19;27.80;39.40
19214;DHT22;9741;51.020;5.304;2022-08-30T11:13:02;28.00;40.00
19214;DHT22;9741;51.020;5.304;2022-08-30T11:15:36;28.00;39.00
19214;DHT22;9741;51.020;5.304;2022-08-30T11:18:24;28.10;38.80
19214;DHT22;9741;51.020;5.304;2022-08-30T11:20:55;28.10;38.70
19214;DHT22;9741;51.020;5.304;2022-08-30T11:24:00;28.20;38.80
19214;DHT22;9741;51.020;5.304;2022-08-30T11:26:52;28.20;38.80
19214;DHT22;9741;51.020;5.304;2022-08-30T11:29:38;28.20;38.70
19214;DHT22;9741;51.020;5.304;2022-08-30T11:35:36;28.30;38.40
19214;DHT22;9741;51.020;5.304;2022-08-30T11:38:19;28.40;38.30
19214;DHT22;9741;51.020;5.304;2022-08-30T11:41:10;28.50;38.20
19214;DHT22;9741;51.020;5.304;2022-08-30T11:44:11;28.50;38.20
19214;DHT22;9741;51.020;5.304;2022-08-30T11:46:46;28.50;38.20
19214;DHT22;9741;51.020;5.304;2022-08-30T11:49:45;28.60;38.70
19214;DHT22;9741;51.020;5.304;2022-08-30T11:52:30;28.60;38.00
19214;DHT22;9741;51.020;5.304;2022-08-30T11:55:35;28.70;37.70
19214;DHT22;9741;51.020;5.304;2022-08-30T11:58:40;28.60;37.70
19214;DHT22;9741;51.020;5.304;2022-08-30T12:01:44;28.50;37.80
19214;DHT22;9741;51.020;5.304;2022-08-30T12:04:27;28.40;37.90
19214;DHT22;9741;51.020;5.304;2022-08-30T12:07:05;28.30;37.80
19214;DHT22;9741;51.020;5.304;2022-08-30T12:09:58;28.20;37.80
19214;DHT22;9741;51.020;5.304;2022-08-30T12:12:54;28.10;37.80
19214;DHT22;9741;51.020;5.304;2022-08-30T12:15:53;28.10;37.80
19214;DHT22;9741;51.020;5.304;2022-08-30T12:18:40;28.10;38.00
19214;DHT22;9741;51.020;5.304;2022-08-30T12:21:26;28.20;38.10
19214;DHT22;9741;51.020;5.304;2022-08-30T12:23:59;28.20;37.80
19214;DHT22;9741;51.020;5.304;2022-08-30T12:26:47;28.30;37.70
19214;DHT22;9741;51.020;5.304;2022-08-30T12:29:18;28.30;37.60
19214;DHT22;9741;51.020;5.304;2022-08-30T12:31:50;28.30;37.50
19214;DHT22;9741;51.020;5.304;2022-08-30T12:34:47;28.30;37.50
19214;DHT22;9741;51.020;5.304;2022-08-30T12:37:21;28.20;37.50
19214;DHT22;9741;51.020;5.304;2022-08-30T12:40:10;28.20;37.40
19214;DHT22;9741;51.020;5.304;2022-08-30T12:42:41;28.30;37.40
19214;DHT22;9741;51.020;5.304;2022-08-30T12:45:21;28.20;37.40
19214;DHT22;9741;51.020;5.304;2022-08-30T12:47:57;28.20;37.30
19214;DHT22;9741;51.020;5.304;2022-08-30T12:50:35;28.30;37.40
19214;DHT22;9741;51.020;5.304;2022-08-30T12:53:08;28.30;37.20
19214;DHT22;9741;51.020;5.304;2022-08-30T12:55:51;28.20;37.20
19214;DHT22;9741;51.020;5.304;2022-08-30T12:58:41;28.30;37.30
19214;DHT22;9741;51.020;5.304;2022-08-30T13:01:18;28.30;37.40
19214;DHT22;9741;51.020;5.304;2022-08-30T13:03:57;28.30;37.30
19214;DHT22;9741;51.020;5.304;2022-08-30T13:06:47;28.20;37.30
19214;DHT22;9741;51.020;5.304;2022-08-30T13:09:26;28.20;37.30
19214;DHT22;9741;51.020;5.304;2022-08-30T13:12:02;28.20;37.20
19214;DHT22;9741;51.020;5.304;2022-08-30T13:14:36;28.10;37.30
19214;DHT22;9741;51.020;5.304;2022-08-30T13:17:07;28.10;37.30
19214;DHT22;9741;51.020;5.304;2022-08-30T13:19:42;28.10;37.60
19214;DHT22;9741;51.020;5.304;2022-08-30T13:22:29;28.00;37.40
19214;DHT22;9741;51.020;5.304;2022-08-30T13:25:00;28.00;37.80
19214;DHT22;9741;51.020;5.304;2022-08-30T13:27:38;28.00;37.70
19214;DHT22;9741;51.020;5.304;2022-08-30T13:30:10;28.10;37.50
19214;DHT22;9741;51.020;5.304;2022-08-30T13:32:39;28.10;38.10
19214;DHT22;9741;51.020;5.304;2022-08-30T13:35:10;28.10;37.30
19214;DHT22;9741;51.020;5.304;2022-08-30T13:37:50;28.00;37.30
19214;DHT22;9741;51.020;5.304;2022-08-30T13:40:19;27.90;37.20
19214;DHT22;9741;51.020;5.304;2022-08-30T13:42:56;27.80;37.30
19214;DHT22;9741;51.020;5.304;2022-08-30T13:45:24;27.80;37.40
19214;DHT22;9741;51.020;5.304;2022-08-30T13:47:54;27.80;37.30
19214;DHT22;9741;51.020;5.304;2022-08-30T13:50:22;27.90;37.40
19214;DHT22;9741;51.020;5.304;2022-08-30T13:52:57;27.90;37.40
19214;DHT22;9741;51.020;5.304;2022-08-30T13:55:25;28.00;37.40
19214;DHT22;9741;51.020;5.304;2022-08-30T13:57:56;28.10;37.30
19214;DHT22;9741;51.020;5.304;2022-08-30T14:00:26;28.10;37.30
19214;DHT22;9741;51.020;5.304;2022-08-30T14:02:58;28.10;37.30
19214;DHT22;9741;51.020;5.304;2022-08-30T14:05:29;28.10;37.20
19214;DHT22;9741;51.020;5.304;2022-08-30T14:08:00;28.10;37.20
19214;DHT22;9741;51.020;5.304;2022-08-30T14:10:32;28.10;37.20
19214;DHT22;9741;51.020;5.304;2022-08-30T14:12:59;28.00;37.20
19214;DHT22;9741;51.020;5.304;2022-08-30T14:15:27;28.00;37.20
19214;DHT22;9741;51.020;5.304;2022-08-30T14:17:54;27.90;37.20
19214;DHT22;9741;51.020;5.304;2022-08-30T14:20:36;27.90;37.20
19214;DHT22;9741;51.020;5.304;2022-08-30T14:23:09;27.80;37.20
19214;DHT22;9741;51.020;5.304;2022-08-30T14:25:40;27.80;37.20
19214;DHT22;9741;51.020;5.304;2022-08-30T14:28:12;27.70;37.30
19214;DHT22;9741;51.020;5.304;2022-08-30T14:30:41;27.80;37.50
19214;DHT22;9741;51.020;5.304;2022-08-30T14:33:11;27.80;37.40
19214;DHT22;9741;51.020;5.304;2022-08-30T14:35:50;27.80;37.40
19214;DHT22;9741;51.020;5.304;2022-08-30T14:38:22;27.80;37.40
19214;DHT22;9741;51.020;5.304;2022-08-30T14:40:54;27.80;37.50
19214;DHT22;9741;51.020;5.304;2022-08-30T14:43:24;27.80;37.50
19214;DHT22;9741;51.020;5.304;2022-08-30T14:45:51;27.80;37.30
19214;DHT22;9741;51.020;5.304;2022-08-30T14:48:21;27.80;37.40
19214;DHT22;9741;51.020;5.304;2022-08-30T14:50:48;27.80;37.30
19214;DHT22;9741;51.020;5.304;2022-08-30T14:53:20;27.80;37.30
19214;DHT22;9741;51.020;5.304;2022-08-30T14:55:47;27.80;37.40
19214;DHT22;9741;51.020;5.304;2022-08-30T14:58:15;27.70;37.40
19214;DHT22;9741;51.020;5.304;2022-08-30T15:00:49;27.60;37.40
19214;DHT22;9741;51.020;5.304;2022-08-30T15:03:19;27.60;37.40
19214;DHT22;9741;51.020;5.304;2022-08-30T15:05:49;27.50;37.40
19214;DHT22;9741;51.020;5.304;2022-08-30T15:08:34;27.50;37.50
19214;DHT22;9741;51.020;5.304;2022-08-30T15:11:07;27.40;38.00
19214;DHT22;9741;51.020;5.304;2022-08-30T15:13:38;27.40;37.50
19214;DHT22;9741;51.020;5.304;2022-08-30T15:16:10;27.40;37.50
19214;DHT22;9741;51.020;5.304;2022-08-30T15:18:41;27.50;37.50
19214;DHT22;9741;51.020;5.304;2022-08-30T15:21:11;27.50;37.40
19214;DHT22;9741;51.020;5.304;2022-08-30T15:23:45;27.60;37.50
19214;DHT22;9741;51.020;5.304;2022-08-30T15:26:17;27.70;37.40
19214;DHT22;9741;51.020;5.304;2022-08-30T15:28:46;27.80;37.40
19214;DHT22;9741;51.020;5.304;2022-08-30T15:31:13;27.80;37.10
19214;DHT22;9741;51.020;5.304;2022-08-30T15:33:43;27.80;37.10
19214;DHT22;9741;51.020;5.304;2022-08-30T15:36:13;27.80;37.00
19214;DHT22;9741;51.020;5.304;2022-08-30T15:38:44;27.70;37.00
19214;DHT22;9741;51.020;5.304;2022-08-30T15:41:14;27.60;36.90
19214;DHT22;9741;51.020;5.304;2022-08-30T15:43:44;27.60;37.00
19214;DHT22;9741;51.020;5.304;2022-08-30T15:46:21;27.50;37.10
19214;DHT22;9741;51.020;5.304;2022-08-30T15:48:54;27.50;37.10
19214;DHT22;9741;51.020;5.304;2022-08-30T15:51:24;27.50;37.10
19214;DHT22;9741;51.020;5.304;2022-08-30T15:53:56;27.50;37.10
19214;DHT22;9741;51.020;5.304;2022-08-30T15:56:34;27.40;37.10
19214;DHT22;9741;51.020;5.304;2022-08-30T15:59:02;27.40;37.20
19214;DHT22;9741;51.020;5.304;2022-08-30T16:01:30;27.40;37.20
19214;DHT22;9741;51.020;5.304;2022-08-30T16:03:59;27.40;37.20
19214;DHT22;9741;51.020;5.304;2022-08-30T16:06:29;27.40;37.30
19214;DHT22;9741;51.020;5.304;2022-08-30T16:09:03;27.40;37.50
19214;DHT22;9741;51.020;5.304;2022-08-30T16:11:40;27.40;37.60
19214;DHT22;9741;51.020;5.304;2022-08-30T16:14:14;27.30;37.70
19214;DHT22;9741;51.020;5.304;2022-08-30T16:16:42;27.30;38.20
19214;DHT22;9741;51.020;5.304;2022-08-30T16:19:11;27.30;37.60
19214;DHT22;9741;51.020;5.304;2022-08-30T16:21:42;27.30;37.70
19214;DHT22;9741;51.020;5.304;2022-08-30T16:24:15;27.30;37.70
19214;DHT22;9741;51.020;5.304;2022-08-30T16:26:45;27.30;37.80
19214;DHT22;9741;51.020;5.304;2022-08-30T16:29:14;27.20;37.80
19214;DHT22;9741;51.020;5.304;2022-08-30T16:31:45;27.30;37.90
19214;DHT22;9741;51.020;5.304;2022-08-30T16:34:19;27.30;38.00
19214;DHT22;9741;51.020;5.304;2022-08-30T16:36:47;27.30;38.00
19214;DHT22;9741;51.020;5.304;2022-08-30T16:39:18;27.30;37.90
19214;DHT22;9741;51.020;5.304;2022-08-30T16:41:46;27.20;37.70